Вейделевка

Карта отелей и гостиниц, располагающихся рядом с аэропортом Вейделевка :



Вейделевка Белгородская область 50° 8' 2.22" N, 38° 26' 57.1812" E

Вейделевка Белгородская область 50° 8' 2.22" N, 38° 26' 57.1812" E
Код аэродрома ИКАО: 
ZDK7
Код аэродрома RU: 
ЗДК7
Координаты: 
N50.13395° E038.44922°
Превышение над уровнем моря : 
182
Основная полоса: 
07/25
Курс магнитный: 
067/247
Длина основной ВПП: 
550
Ширина основной ВПП: 
23
Покрытие основной ВПП: 
Твёрдое (асфальт)
Тип: 
Аэродром
Освещение ВПП: 
Нет
Класс аэродрома: 
Статус: 
Недействующий
Принадлежность: 
ГА
Сайт: 
E-mail аэродрома: 
Страна: 
Россия
Регион: 
Белгородская область
Город: 
Дополнительная информация: 
Площадка АХР.

Найти трансфер

С помощью этой формы Вы можете найти трансфер из аэропорта Вейделевка в город, аэропорт или вокзал:

Карта места

Javascript is required to view this map.

Погода в аэропортах:

Авиационная погода в Савонлинна

Регион: 
Погода METAR: 
EFSA 042250Z AUTO 09010KT 060V120 9999 -SHRA OVC004 13/12 Q0999
Время наблюдения: 
2020-06-04T22:50:00Z
Температура C: 
13.0
Точка росы: 
12.0
Направление ветра: 
90
Скорость ветра: 
10
Метеорологическая видимость: 
6.21
Явления погоды: 
-SHRA
Условия полета: 
LIFR

Авиационная погода в Нижнем Новгороде

Регион: 
Погода METAR: 
UWGG 042300Z 00000MPS 5000 1000NE R18L/1800D BR NSC 11/11 Q1011 R18L/190060 TEMPO 0500 FG
Время наблюдения: 
2020-06-04T23:00:00Z
Температура C: 
11.0
Точка росы: 
11.0
Направление ветра: 
0
Скорость ветра: 
0
Метеорологическая видимость: 
3.11
Явления погоды: 
BR
Условия полета: 
MVFR

Авиационная погода в Самаре

Регион: 
Погода METAR: 
UWWW 042300Z 16002MPS 1200 0350NE R15/0350N FG VV003 16/16 Q1015 R15/250050 NOSIG RMK QFE750/1000
Время наблюдения: 
2020-06-04T23:00:00Z
Температура C: 
16.0
Точка росы: 
16.0
Направление ветра: 
160
Скорость ветра: 
4
Метеорологическая видимость: 
0.75
Явления погоды: 
FG
Условия полета: 
LIFR
Аэропорт подробнее: 

Авиационная погода в Витебске

Регион: 
Погода METAR: 
UMII 041400Z 29003MPS 7000 -SHRA BKN017CB 15/14 Q1002 TEMPO 2000 TSRA BKN005
Время наблюдения: 
2020-06-04T14:00:00Z
Температура C: 
15.0
Точка росы: 
14.0
Направление ветра: 
290
Скорость ветра: 
6
Метеорологическая видимость: 
4.35
Явления погоды: 
-SHRA
Условия полета: 
MVFR